createdAt,value
2022-10-09T00:01:24.236Z,89.00
2022-10-09T00:03:53.261Z,88.90
2022-10-09T00:06:31.723Z,88.90
2022-10-09T00:09:02.595Z,88.70
2022-10-09T00:11:31.749Z,88.70
2022-10-09T00:13:59.647Z,88.60
2022-10-09T00:16:30.140Z,88.40
2022-10-09T00:18:59.741Z,88.20
2022-10-09T00:21:36.905Z,88.00
2022-10-09T00:24:08.684Z,87.70
2022-10-09T00:26:38.296Z,87.80
2022-10-09T00:29:07.889Z,87.70
2022-10-09T00:31:35.334Z,87.80
2022-10-09T00:34:02.636Z,87.70
2022-10-09T00:36:29.915Z,87.60
2022-10-09T00:38:57.398Z,87.70
2022-10-09T00:41:30.640Z,87.60
2022-10-09T00:44:02.307Z,87.50
2022-10-09T00:46:55.691Z,87.50
2022-10-09T00:49:32.191Z,87.30
2022-10-09T00:52:03.225Z,86.60
2022-10-09T00:54:34.097Z,86.70
2022-10-09T00:57:01.805Z,87.40
2022-10-09T00:59:30.079Z,86.70
2022-10-09T01:01:57.512Z,86.60
2022-10-09T01:04:24.879Z,86.60
2022-10-09T01:07:00.892Z,86.60
2022-10-09T01:09:40.019Z,86.50
2022-10-09T01:12:20.038Z,86.40
2022-10-09T01:15:20.767Z,86.10
2022-10-09T01:18:15.258Z,86.00
2022-10-09T01:20:54.759Z,86.10
2022-10-09T01:23:40.163Z,85.80
2022-10-09T01:26:16.376Z,85.70
2022-10-09T01:28:47.569Z,86.00
2022-10-09T01:31:17.774Z,85.90
2022-10-09T01:33:46.691Z,85.90
2022-10-09T01:36:16.369Z,86.00
2022-10-09T01:38:45.303Z,85.90
2022-10-09T01:41:12.713Z,85.80
2022-10-09T01:43:43.479Z,85.80
2022-10-09T01:46:27.265Z,85.80
2022-10-09T01:49:11.382Z,85.60
2022-10-09T01:51:51.893Z,86.10
2022-10-09T01:54:31.696Z,85.40
2022-10-09T01:57:04.009Z,85.70
2022-10-09T01:59:35.885Z,85.70
2022-10-09T02:02:07.685Z,85.70
2022-10-09T02:04:38.758Z,85.50
2022-10-09T02:07:06.379Z,85.80
2022-10-09T02:09:34.708Z,85.70
2022-10-09T02:12:07.990Z,85.60
2022-10-09T02:14:36.527Z,85.20
2022-10-09T02:17:12.158Z,85.40
2022-10-09T02:19:48.257Z,85.00
2022-10-09T02:22:47.112Z,85.40
2022-10-09T02:25:15.593Z,85.50
2022-10-09T02:27:42.976Z,85.60
2022-10-09T02:30:13.701Z,85.50
2022-10-09T02:32:41.104Z,85.60
2022-10-09T02:35:11.349Z,85.60
2022-10-09T02:37:38.597Z,85.60
2022-10-09T02:40:10.865Z,85.50
2022-10-09T02:42:40.605Z,85.40
2022-10-09T02:45:10.883Z,85.40
2022-10-09T02:47:40.279Z,85.40
2022-10-09T02:50:08.324Z,85.40
2022-10-09T02:52:35.654Z,85.30
2022-10-09T02:55:03.033Z,85.30
2022-10-09T02:57:32.776Z,85.20
2022-10-09T03:00:02.759Z,85.10
2022-10-09T03:02:32.390Z,85.20
2022-10-09T03:05:02.084Z,85.20
2022-10-09T03:07:31.530Z,85.00
2022-10-09T03:09:58.888Z,85.00
2022-10-09T03:12:26.269Z,85.00
2022-10-09T03:14:53.517Z,84.90
2022-10-09T03:17:23.104Z,85.00
2022-10-09T03:19:54.972Z,85.10
2022-10-09T03:22:27.162Z,85.30
2022-10-09T03:24:56.891Z,85.20
2022-10-09T03:27:24.153Z,85.30
2022-10-09T03:29:53.911Z,85.30
2022-10-09T03:32:23.623Z,85.30
2022-10-09T03:34:53.224Z,85.20
2022-10-09T03:37:20.470Z,85.20
2022-10-09T03:39:49.993Z,85.10
2022-10-09T03:42:17.313Z,85.20
2022-10-09T03:44:46.949Z,85.20
2022-10-09T03:47:16.666Z,85.20
2022-10-09T03:49:48.875Z,85.20
2022-10-09T03:52:16.135Z,85.40
2022-10-09T03:54:43.489Z,85.30
2022-10-09T03:57:10.821Z,85.00
2022-10-09T03:59:40.234Z,84.90
2022-10-09T04:02:08.350Z,84.90
2022-10-09T04:04:35.633Z,84.90
2022-10-09T04:07:02.924Z,85.00
2022-10-09T04:09:30.197Z,85.20
2022-10-09T04:11:59.979Z,85.20
2022-10-09T04:14:27.237Z,85.10
2022-10-09T04:16:54.685Z,85.40
2022-10-09T04:19:26.835Z,85.40
2022-10-09T04:21:58.653Z,85.00
2022-10-09T04:24:25.804Z,85.10
2022-10-09T04:26:52.962Z,84.60
2022-10-09T04:29:21.440Z,84.60
2022-10-09T04:31:51.185Z,84.60
2022-10-09T04:34:18.638Z,84.90
2022-10-09T04:36:50.913Z,85.00
2022-10-09T04:39:20.546Z,85.10
2022-10-09T04:41:47.823Z,85.20
2022-10-09T04:44:15.165Z,85.30
2022-10-09T04:46:42.453Z,85.50
2022-10-09T04:49:14.078Z,85.60
2022-10-09T04:51:41.378Z,85.50
2022-10-09T04:54:09.630Z,84.80
2022-10-09T04:56:37.148Z,86.10
2022-10-09T04:59:04.772Z,85.60
2022-10-09T05:01:38.030Z,85.30
2022-10-09T05:04:08.141Z,85.30
2022-10-09T05:06:37.673Z,85.30
2022-10-09T05:09:10.057Z,85.30
2022-10-09T05:11:42.313Z,85.40
2022-10-09T05:14:13.428Z,85.20
2022-10-09T05:17:00.899Z,85.00
2022-10-09T05:19:27.983Z,85.10
2022-10-09T05:21:55.583Z,84.80
2022-10-09T05:24:22.835Z,84.80
2022-10-09T05:26:50.185Z,84.50
2022-10-09T05:29:17.558Z,84.70
2022-10-09T05:31:49.608Z,84.70
2022-10-09T05:34:17.352Z,84.60
2022-10-09T05:36:44.629Z,84.80
2022-10-09T05:39:13.194Z,84.60
2022-10-09T05:41:40.562Z,84.30
2022-10-09T05:44:08.890Z,84.10
2022-10-09T05:46:36.264Z,84.00
2022-10-09T05:49:07.940Z,83.80
2022-10-09T05:51:36.662Z,83.70
2022-10-09T05:54:04.730Z,83.40
2022-10-09T05:56:37.091Z,83.50
2022-10-09T05:59:10.205Z,83.50
2022-10-09T06:01:42.708Z,83.50
2022-10-09T06:04:21.101Z,83.60
2022-10-09T06:06:52.337Z,83.60
2022-10-09T06:09:23.262Z,83.90
2022-10-09T06:11:53.887Z,83.80
2022-10-09T06:14:22.275Z,84.00
2022-10-09T06:16:52.670Z,84.10
2022-10-09T06:19:22.990Z,84.10
2022-10-09T06:21:52.488Z,84.00
2022-10-09T06:24:29.753Z,84.30
2022-10-09T06:26:59.922Z,84.40
2022-10-09T06:29:27.420Z,84.80
2022-10-09T06:31:57.065Z,84.90
2022-10-09T06:34:24.963Z,85.00
2022-10-09T06:36:52.258Z,85.30
2022-10-09T06:39:19.629Z,85.80
2022-10-09T06:41:47.001Z,85.90
2022-10-09T06:44:17.165Z,86.20
2022-10-09T06:46:49.205Z,86.60
2022-10-09T06:49:16.499Z,87.00
2022-10-09T06:51:43.786Z,87.20
2022-10-09T06:54:17.492Z,87.20
2022-10-09T06:56:44.987Z,87.40
2022-10-09T06:59:12.454Z,87.90
2022-10-09T07:01:42.064Z,88.40
2022-10-09T07:04:12.050Z,88.70
2022-10-09T07:06:42.218Z,89.10
2022-10-09T07:09:12.459Z,89.30
2022-10-09T07:11:45.201Z,88.30
2022-10-09T07:14:14.244Z,88.60
2022-10-09T07:16:48.714Z,88.30
2022-10-09T07:19:17.843Z,87.60
2022-10-09T07:21:47.573Z,87.50
2022-10-09T07:24:15.315Z,85.30
2022-10-09T07:26:45.281Z,86.60
2022-10-09T07:29:15.049Z,87.20
2022-10-09T07:31:42.506Z,87.10
2022-10-09T07:34:10.144Z,87.10
2022-10-09T07:36:37.589Z,86.40
2022-10-09T07:39:05.623Z,86.80
2022-10-09T07:41:33.117Z,86.20
2022-10-09T07:44:00.469Z,86.60
2022-10-09T07:46:33.298Z,86.00
2022-10-09T07:49:01.773Z,85.20
2022-10-09T07:51:30.228Z,84.00
2022-10-09T07:53:58.244Z,83.40
2022-10-09T07:56:29.192Z,83.40
2022-10-09T07:58:58.956Z,81.30
2022-10-09T08:01:30.751Z,81.10
2022-10-09T08:04:02.607Z,81.50
2022-10-09T08:06:31.007Z,82.10
2022-10-09T08:09:02.155Z,82.40
2022-10-09T08:11:30.174Z,80.70
2022-10-09T08:13:57.843Z,80.50
2022-10-09T08:16:26.946Z,79.10
2022-10-09T08:18:58.925Z,78.50
2022-10-09T08:21:28.359Z,80.10
2022-10-09T08:23:57.546Z,80.00
2022-10-09T08:26:26.264Z,79.40
2022-10-09T08:28:59.249Z,77.50
2022-10-09T08:31:27.727Z,76.50
2022-10-09T08:34:00.153Z,76.10
2022-10-09T08:36:29.243Z,75.40
2022-10-09T08:38:56.585Z,75.80
2022-10-09T08:41:29.676Z,75.10
2022-10-09T08:44:19.974Z,74.20
2022-10-09T08:46:56.703Z,73.00
2022-10-09T08:49:35.389Z,72.40
2022-10-09T08:52:16.947Z,71.20
2022-10-09T08:54:46.728Z,71.00
2022-10-09T08:57:18.321Z,70.10
2022-10-09T08:59:45.675Z,69.70
2022-10-09T09:02:51.113Z,71.70
2022-10-09T09:05:27.725Z,70.80
2022-10-09T09:08:19.964Z,69.30
2022-10-09T09:10:57.684Z,69.30
2022-10-09T09:13:24.993Z,67.90
2022-10-09T09:16:18.604Z,67.60
2022-10-09T09:18:52.653Z,67.00
2022-10-09T09:21:48.464Z,65.20
2022-10-09T09:24:19.505Z,66.20
2022-10-09T09:26:53.598Z,65.70
2022-10-09T09:29:24.633Z,66.40
2022-10-09T09:32:05.130Z,65.20
2022-10-09T09:34:39.072Z,64.70
2022-10-09T09:37:06.412Z,65.20
2022-10-09T09:42:30.344Z,63.80
2022-10-09T09:45:07.021Z,62.70
2022-10-09T09:47:40.471Z,63.60
2022-10-09T09:50:28.437Z,63.90
2022-10-09T09:53:03.206Z,64.10
2022-10-09T09:55:34.617Z,65.50
2022-10-09T09:58:03.750Z,64.50
2022-10-09T10:00:34.074Z,67.40
2022-10-09T10:03:08.786Z,62.80
2022-10-09T10:05:37.879Z,61.20
2022-10-09T10:08:23.175Z,59.10
2022-10-09T10:10:53.590Z,59.20
2022-10-09T10:13:32.841Z,57.60
2022-10-09T10:16:03.175Z,54.80
2022-10-09T10:18:37.626Z,53.70
2022-10-09T10:21:08.828Z,53.50
2022-10-09T10:23:44.186Z,53.20
2022-10-09T10:26:34.659Z,52.40
2022-10-09T10:29:18.071Z,52.10
2022-10-09T10:31:52.470Z,52.00
2022-10-09T10:34:37.849Z,50.20
2022-10-09T10:37:25.369Z,50.10
2022-10-09T10:39:56.944Z,50.30
2022-10-09T10:43:01.281Z,48.80
2022-10-09T10:45:37.387Z,49.50
2022-10-09T10:48:09.339Z,47.90
2022-10-09T10:50:40.762Z,48.40
2022-10-09T10:53:14.114Z,48.30
2022-10-09T10:56:02.647Z,52.30
2022-10-09T10:58:37.397Z,48.80
2022-10-09T11:01:42.412Z,48.90
2022-10-09T11:04:47.494Z,48.20
2022-10-09T11:07:37.274Z,48.90
2022-10-09T11:10:22.554Z,48.30
2022-10-09T11:13:14.167Z,48.30
2022-10-09T11:15:59.998Z,47.00
2022-10-09T11:18:42.625Z,49.80
2022-10-09T11:21:46.771Z,48.10
2022-10-09T11:24:43.281Z,47.30
2022-10-09T11:27:25.458Z,48.30
2022-10-09T11:29:58.674Z,48.30
2022-10-09T11:32:29.109Z,46.70
2022-10-09T11:35:12.740Z,46.90
2022-10-09T11:37:43.521Z,47.80
2022-10-09T11:40:36.522Z,46.00
2022-10-09T11:43:16.250Z,47.90
2022-10-09T11:45:49.586Z,47.10
2022-10-09T11:48:25.827Z,46.40
2022-10-09T11:50:53.089Z,47.60
2022-10-09T11:53:26.782Z,47.30
2022-10-09T11:56:21.888Z,46.40
2022-10-09T11:59:02.341Z,46.30
2022-10-09T12:01:34.998Z,44.00
2022-10-09T12:04:08.691Z,43.90
2022-10-09T12:07:00.681Z,43.10
2022-10-09T12:09:39.993Z,43.40
2022-10-09T12:12:16.326Z,40.10
2022-10-09T12:14:48.469Z,40.10
2022-10-09T12:17:38.486Z,39.40
2022-10-09T12:20:19.107Z,38.50
2022-10-09T12:23:13.843Z,40.10
2022-10-09T12:25:44.267Z,39.90
2022-10-09T12:28:36.408Z,38.80
2022-10-09T12:31:08.908Z,40.70
2022-10-09T12:33:41.793Z,39.90
2022-10-09T12:36:38.694Z,38.30
2022-10-09T12:39:33.987Z,39.70
2022-10-09T12:42:02.169Z,37.90
2022-10-09T12:44:34.034Z,37.10
2022-10-09T12:47:13.914Z,36.60
2022-10-09T12:49:41.343Z,36.80
2022-10-09T12:52:16.395Z,36.00
2022-10-09T12:54:45.040Z,35.90
2022-10-09T12:57:17.787Z,34.90
2022-10-09T12:59:47.063Z,34.00
2022-10-09T13:02:21.127Z,33.50
2022-10-09T13:05:03.412Z,33.90
2022-10-09T13:07:32.645Z,33.90
2022-10-09T13:10:04.006Z,32.90
2022-10-09T13:12:31.734Z,33.30
2022-10-09T13:15:06.899Z,36.10
2022-10-09T13:17:41.819Z,34.70
2022-10-09T13:20:12.355Z,36.10
2022-10-09T13:22:52.823Z,36.20
2022-10-09T13:25:20.390Z,37.10
2022-10-09T13:27:48.117Z,37.70
2022-10-09T13:30:15.719Z,38.40
2022-10-09T13:32:43.112Z,38.90
2022-10-09T13:35:10.554Z,39.20
2022-10-09T13:37:38.107Z,39.40
2022-10-09T13:40:14.779Z,39.50
2022-10-09T13:42:43.034Z,40.00
2022-10-09T13:45:11.024Z,39.90
2022-10-09T13:47:40.837Z,39.80
2022-10-09T13:50:08.539Z,41.30
2022-10-09T13:52:35.961Z,41.00
2022-10-09T13:55:03.420Z,41.70
2022-10-09T13:57:35.345Z,42.30
2022-10-09T14:00:06.194Z,42.30
2022-10-09T14:05:25.713Z,41.90
2022-10-09T14:07:53.308Z,42.40
2022-10-09T14:10:23.869Z,42.90
2022-10-09T14:12:52.108Z,42.40
2022-10-09T14:15:24.569Z,42.00
2022-10-09T14:17:52.154Z,42.20
2022-10-09T14:20:20.063Z,41.90
2022-10-09T14:22:53.001Z,41.90
2022-10-09T14:25:20.414Z,42.10
2022-10-09T14:27:47.780Z,42.10
2022-10-09T14:30:15.120Z,42.00
2022-10-09T14:32:53.173Z,42.20
2022-10-09T14:35:21.608Z,41.80
2022-10-09T14:37:49.347Z,42.20
2022-10-09T14:40:17.129Z,42.20
2022-10-09T14:42:44.579Z,42.70
2022-10-09T14:45:38.570Z,43.10
2022-10-09T14:48:08.875Z,43.10
2022-10-09T14:50:36.664Z,43.30
2022-10-09T14:53:04.251Z,43.30
2022-10-09T14:55:34.067Z,43.30
2022-10-09T14:58:01.741Z,43.30
2022-10-09T15:00:29.182Z,43.50
2022-10-09T15:02:59.028Z,43.70
2022-10-09T15:05:27.440Z,43.00
2022-10-09T15:07:54.861Z,42.90
2022-10-09T15:10:22.390Z,43.10
2022-10-09T15:12:52.371Z,43.40
2022-10-09T15:15:19.940Z,43.40
2022-10-09T15:17:47.815Z,43.70
2022-10-09T15:20:15.505Z,43.80
2022-10-09T15:22:43.037Z,44.10
2022-10-09T15:25:10.621Z,44.00
2022-10-09T15:27:38.543Z,44.20
2022-10-09T15:30:06.616Z,44.50
2022-10-09T15:32:34.205Z,44.10
2022-10-09T15:35:02.295Z,44.20
2022-10-09T15:37:29.737Z,44.10
2022-10-09T15:39:57.172Z,44.40
2022-10-09T15:42:24.653Z,44.40
2022-10-09T15:44:54.822Z,43.60
2022-10-09T15:47:39.225Z,44.50
2022-10-09T15:50:10.300Z,43.80
2022-10-09T15:52:38.026Z,43.40
2022-10-09T15:55:07.204Z,43.60
2022-10-09T15:57:34.742Z,43.80
2022-10-09T16:00:02.152Z,44.10
2022-10-09T16:02:29.747Z,43.90
2022-10-09T16:04:57.152Z,44.00
2022-10-09T16:07:27.228Z,44.10
2022-10-09T16:09:57.496Z,43.70
2022-10-09T16:12:25.128Z,44.20
2022-10-09T16:14:52.841Z,43.70
2022-10-09T16:17:20.268Z,43.70
2022-10-09T16:19:47.860Z,43.60
2022-10-09T16:22:15.301Z,43.60
2022-10-09T16:24:42.654Z,43.40
2022-10-09T16:27:10.227Z,43.50
2022-10-09T16:32:21.513Z,43.80
2022-10-09T16:35:00.753Z,43.80
2022-10-09T16:37:30.720Z,43.70
2022-10-09T16:40:01.497Z,44.10
2022-10-09T16:42:30.658Z,43.70
2022-10-09T16:44:58.791Z,44.30
2022-10-09T16:47:34.865Z,44.30
2022-10-09T16:50:03.913Z,44.30
2022-10-09T16:52:33.948Z,44.60
2022-10-09T16:55:01.359Z,44.30
2022-10-09T16:57:28.861Z,44.60
2022-10-09T16:59:56.304Z,44.60
2022-10-09T17:02:26.145Z,44.30
2022-10-09T17:04:53.696Z,44.40
2022-10-09T17:07:21.280Z,44.60
2022-10-09T17:09:48.876Z,44.70
2022-10-09T17:12:16.847Z,44.90
2022-10-09T17:14:54.654Z,44.90
2022-10-09T17:17:22.043Z,44.60
2022-10-09T17:19:52.434Z,44.90
2022-10-09T17:22:42.690Z,45.10
2022-10-09T17:25:11.710Z,45.40
2022-10-09T17:27:44.813Z,45.20
2022-10-09T17:30:15.762Z,45.40
2022-10-09T17:32:46.650Z,45.30
2022-10-09T17:35:16.213Z,45.70
2022-10-09T17:37:46.312Z,45.70
2022-10-09T17:40:13.870Z,45.80
2022-10-09T17:42:41.367Z,45.90
2022-10-09T17:45:12.984Z,46.00
2022-10-09T17:47:40.417Z,46.10
2022-10-09T17:50:10.640Z,46.70
2022-10-09T17:52:40.164Z,46.30
2022-10-09T17:55:08.665Z,46.30
2022-10-09T17:57:37.352Z,46.50
2022-10-09T18:00:05.303Z,46.60
2022-10-09T18:02:32.840Z,46.70
2022-10-09T18:05:02.682Z,46.70
2022-10-09T18:07:31.077Z,46.80
2022-10-09T18:10:01.768Z,47.10
2022-10-09T18:12:29.584Z,47.10
2022-10-09T18:15:01.287Z,47.10
2022-10-09T18:17:34.322Z,47.20
2022-10-09T18:20:03.906Z,47.20
2022-10-09T18:22:36.485Z,47.10
2022-10-09T18:25:05.172Z,47.40
2022-10-09T18:27:33.078Z,47.40
2022-10-09T18:30:00.416Z,47.30
2022-10-09T18:32:28.050Z,47.30
2022-10-09T18:34:55.443Z,47.30
2022-10-09T18:37:23.884Z,47.50
2022-10-09T18:39:53.355Z,47.70
2022-10-09T18:42:20.663Z,47.60
2022-10-09T18:44:50.908Z,47.80
2022-10-09T18:47:22.555Z,47.80
2022-10-09T18:49:54.242Z,48.00
2022-10-09T18:52:24.988Z,48.20
2022-10-09T18:54:56.458Z,48.10
2022-10-09T18:57:26.532Z,48.20
2022-10-09T18:59:55.552Z,48.30
2022-10-09T19:02:26.537Z,48.30
2022-10-09T19:04:54.781Z,48.40
2022-10-09T19:07:22.577Z,48.30
2022-10-09T19:09:54.892Z,48.40
2022-10-09T19:12:27.105Z,48.30
2022-10-09T19:14:56.856Z,48.30
2022-10-09T19:17:24.403Z,48.30
2022-10-09T19:19:54.218Z,48.40
2022-10-09T19:22:24.025Z,48.70
2022-10-09T19:24:51.559Z,48.70
2022-10-09T19:27:18.939Z,48.50
2022-10-09T19:29:46.531Z,48.50
2022-10-09T19:32:18.215Z,48.40
2022-10-09T19:34:48.107Z,48.70
2022-10-09T19:37:15.705Z,48.50
2022-10-09T19:39:51.910Z,48.70
2022-10-09T19:42:20.145Z,48.80
2022-10-09T19:44:47.941Z,49.50
2022-10-09T19:47:16.346Z,48.90
2022-10-09T19:49:44.059Z,49.00
2022-10-09T19:52:11.493Z,49.00
2022-10-09T19:54:40.455Z,49.00
2022-10-09T19:57:08.236Z,49.10
2022-10-09T19:59:35.933Z,49.20
2022-10-09T20:02:06.651Z,49.10
2022-10-09T20:04:35.401Z,49.30
2022-10-09T20:07:12.954Z,49.20
2022-10-09T20:09:41.122Z,49.30
2022-10-09T20:12:09.962Z,49.40
2022-10-09T20:14:37.860Z,49.60
2022-10-09T20:17:06.978Z,49.60
2022-10-09T20:19:34.614Z,49.60
2022-10-09T20:22:02.400Z,50.00
2022-10-09T20:24:32.654Z,49.90
2022-10-09T20:27:02.717Z,49.90
2022-10-09T20:29:33.712Z,49.90
2022-10-09T20:32:01.574Z,50.00
2022-10-09T20:34:30.930Z,50.00
2022-10-09T20:36:58.611Z,50.10
2022-10-09T20:39:26.093Z,50.40
2022-10-09T20:41:53.576Z,50.40
2022-10-09T20:44:21.078Z,50.30
2022-10-09T20:46:49.528Z,50.50
2022-10-09T20:49:17.066Z,50.40
2022-10-09T20:51:47.359Z,50.50
2022-10-09T20:54:27.212Z,50.70
2022-10-09T20:56:57.732Z,50.90
2022-10-09T20:59:30.516Z,50.80
2022-10-09T21:01:57.993Z,50.70
2022-10-09T21:04:25.670Z,50.90
2022-10-09T21:06:53.293Z,51.10
2022-10-09T21:09:20.837Z,51.00
2022-10-09T21:11:48.432Z,51.20
2022-10-09T21:14:19.641Z,51.00
2022-10-09T21:16:49.442Z,51.20
2022-10-09T21:19:20.698Z,51.30
2022-10-09T21:21:51.246Z,51.40
2022-10-09T21:24:18.999Z,51.30
2022-10-09T21:26:47.579Z,51.50
2022-10-09T21:29:17.911Z,51.50
2022-10-09T21:31:45.491Z,51.50
2022-10-09T21:34:13.215Z,51.60
2022-10-09T21:37:15.957Z,51.70
2022-10-09T21:39:33.837Z,52.00
2022-10-09T21:42:04.047Z,52.00
2022-10-09T21:44:31.415Z,51.90
2022-10-09T21:46:58.789Z,52.00
2022-10-09T21:49:28.473Z,51.70
2022-10-09T21:51:56.370Z,52.10
2022-10-09T21:54:24.038Z,52.10
2022-10-09T21:56:53.923Z,52.00
2022-10-09T21:59:21.586Z,52.10
2022-10-09T22:01:49.094Z,52.10
2022-10-09T22:04:16.634Z,52.40
2022-10-09T22:06:44.057Z,52.20
2022-10-09T22:09:12.239Z,52.30
2022-10-09T22:11:39.748Z,52.30
2022-10-09T22:14:07.754Z,52.20
2022-10-09T22:16:35.353Z,52.30
2022-10-09T22:19:03.199Z,52.30
2022-10-09T22:21:30.678Z,52.00
2022-10-09T22:24:01.078Z,52.20
2022-10-09T22:26:28.727Z,52.40
2022-10-09T22:28:56.153Z,52.30
2022-10-09T22:31:26.338Z,52.20
2022-10-09T22:34:00.442Z,52.20
2022-10-09T22:36:35.129Z,52.20
2022-10-09T22:39:05.313Z,52.20
2022-10-09T22:41:34.390Z,52.00
2022-10-09T22:44:02.942Z,52.60
2022-10-09T22:46:39.665Z,52.00
2022-10-09T22:49:15.803Z,52.00
2022-10-09T22:51:43.770Z,52.00
2022-10-09T22:54:12.621Z,52.00
2022-10-09T22:56:45.026Z,52.10
2022-10-09T22:59:16.270Z,52.00
2022-10-09T23:01:55.754Z,51.90
2022-10-09T23:04:24.411Z,52.20
2022-10-09T23:06:57.260Z,51.90
2022-10-09T23:09:31.487Z,51.80
2022-10-09T23:12:02.442Z,52.00
2022-10-09T23:14:30.093Z,52.00
2022-10-09T23:16:57.651Z,52.00
2022-10-09T23:19:25.225Z,51.90
2022-10-09T23:21:52.713Z,52.20
2022-10-09T23:24:20.235Z,52.00
2022-10-09T23:26:51.086Z,52.00
2022-10-09T23:29:24.013Z,52.10
2022-10-09T23:31:55.765Z,52.30
2022-10-09T23:34:23.317Z,52.20
2022-10-09T23:36:51.960Z,52.30
2022-10-09T23:39:19.382Z,52.20
2022-10-09T23:41:46.804Z,52.30
2022-10-09T23:44:15.962Z,52.20
2022-10-09T23:46:45.171Z,52.50
2022-10-09T23:49:12.746Z,52.20
2022-10-09T23:51:40.187Z,52.20
2022-10-09T23:54:07.748Z,52.20
2022-10-09T23:56:36.527Z,52.40
2022-10-09T23:59:08.562Z,52.30
